Ana Sayfa
METAR-TAF:

METAR-TAF

Havaalanları :

Ivano-Frankivsk Uluslararası Havalimanı

İvano-Frankivsk, Ukrayna

Enlem: 48-53-03N, Boylam: 024-41-10E, yükseklik: 280 m

Güncel hava durumu gözlemi

Rapor saat 05:00 UTC de 20 dakika önce yapıldı.
Rüzgar batı/güneybatıdan 4 kt
Sıcaklık 5°C
Nem 75%
Basınç 1016 hPa
Görüş mesafesi 10 km veya daha fazla
1500 m altında bulut yok ve kümülonimbus yok

METAR: UKLI 160500Z 24002MPS CAVOK 05/01 Q1016 R10/090070 NOSIG

Saat: 07:20 (05:20 UTC)

Tahmin

Rapor saat 02:01 UTC de 3 saat ve 19 dakika önce yapıldı.
Ayın 16'si saat 03 UTC'den ayın 16'si saat 12 UTC'ye kadar geçerli Tahmin
Rüzgar batı/güneybatıdan 6 kt
Görüş mesafesi 10 km veya daha fazla
3000 ft yükseklikte parçalı bulutlu

TAF: UKLI 160201Z 1603/1612 24003MPS 9999 SCT030 TX12/1612Z TN02/1603Z

4.000'den fazla havaalanı için hava durumu gözlemleri ve tahminleri (METAR ve TAF raporları).

Kullanılabilir istasyonlar harita üzerinde sarı ve kırmızı noktalarla gösterilir.

İstasyonun adını görmek için fareyi noktanın üzerinde gezdirin.

Sonrasında hava gözlem ve tahminlerini görmek için tıklayın.

Haritayı değiştirmek için: yaklaştırmak için siyah artı işaretli yeşil düğmeye ve uzaklaştırmak için de eksi işaretli düğmeye hızla tıklayın; bitişik haritalar için yeşil okları kullanın.


METAR-TAF: